sensor_id;sensor_type;location;lat;lon;timestamp;pressure;altitude;pressure_sealevel;temperature;humidity
44255;BME280;29933;47.226;15.734;2022-11-24T00:01:24;95323.66;;;1.97;100.00
44255;BME280;29933;47.226;15.734;2022-11-24T00:04:04;95321.22;;;1.88;100.00
44255;BME280;29933;47.226;15.734;2022-11-24T00:06:34;95319.16;;;1.81;100.00
44255;BME280;29933;47.226;15.734;2022-11-24T00:09:01;95330.88;;;1.73;100.00
44255;BME280;29933;47.226;15.734;2022-11-24T00:11:30;95333.84;;;1.68;100.00
44255;BME280;29933;47.226;15.734;2022-11-24T00:13:57;95329.50;;;1.59;100.00
44255;BME280;29933;47.226;15.734;2022-11-24T00:16:27;95322.41;;;1.48;100.00
44255;BME280;29933;47.226;15.734;2022-11-24T00:18:57;95325.47;;;1.50;100.00
44255;BME280;29933;47.226;15.734;2022-11-24T00:21:25;95319.00;;;1.51;100.00
44255;BME280;29933;47.226;15.734;2022-11-24T00:23:51;95325.69;;;1.41;100.00
44255;BME280;29933;47.226;15.734;2022-11-24T00:26:24;95320.34;;;1.41;100.00
44255;BME280;29933;47.226;15.734;2022-11-24T00:28:53;95331.03;;;1.41;100.00
44255;BME280;29933;47.226;15.734;2022-11-24T00:31:40;95332.13;;;1.36;100.00
44255;BME280;29933;47.226;15.734;2022-11-24T00:34:10;95339.34;;;1.36;100.00
44255;BME280;29933;47.226;15.734;2022-11-24T00:36:38;95352.28;;;1.34;100.00
44255;BME280;29933;47.226;15.734;2022-11-24T00:39:12;95344.91;;;1.27;100.00
44255;BME280;29933;47.226;15.734;2022-11-24T00:41:38;95344.00;;;1.19;100.00
44255;BME280;29933;47.226;15.734;2022-11-24T00:44:05;95347.44;;;1.20;100.00
44255;BME280;29933;47.226;15.734;2022-11-24T00:46:31;95345.94;;;1.22;100.00
44255;BME280;29933;47.226;15.734;2022-11-24T00:48:57;95352.09;;;1.23;100.00
44255;BME280;29933;47.226;15.734;2022-11-24T00:51:26;95352.09;;;1.23;100.00
44255;BME280;29933;47.226;15.734;2022-11-24T00:53:57;95333.72;;;1.21;100.00
44255;BME280;29933;47.226;15.734;2022-11-24T00:56:24;95335.63;;;1.21;100.00
44255;BME280;29933;47.226;15.734;2022-11-24T00:58:51;95341.81;;;1.25;100.00
44255;BME280;29933;47.226;15.734;2022-11-24T01:01:21;95344.56;;;1.28;100.00
44255;BME280;29933;47.226;15.734;2022-11-24T01:03:47;95351.16;;;1.35;100.00
44255;BME280;29933;47.226;15.734;2022-11-24T01:06:20;95350.88;;;1.40;100.00
44255;BME280;29933;47.226;15.734;2022-11-24T01:08:47;95353.22;;;1.41;100.00
44255;BME280;29933;47.226;15.734;2022-11-24T01:11:26;95352.44;;;1.41;100.00
44255;BME280;29933;47.226;15.734;2022-11-24T01:13:57;95350.47;;;1.38;100.00
44255;BME280;29933;47.226;15.734;2022-11-24T01:16:29;95356.44;;;1.31;100.00
44255;BME280;29933;47.226;15.734;2022-11-24T01:18:56;95362.88;;;1.26;100.00
44255;BME280;29933;47.226;15.734;2022-11-24T01:21:22;95369.78;;;1.27;100.00
44255;BME280;29933;47.226;15.734;2022-11-24T01:23:49;95374.97;;;1.20;100.00
44255;BME280;29933;47.226;15.734;2022-11-24T01:26:19;95370.22;;;1.13;100.00
44255;BME280;29933;47.226;15.734;2022-11-24T01:28:45;95379.81;;;1.15;100.00
44255;BME280;29933;47.226;15.734;2022-11-24T01:31:12;95369.03;;;1.11;100.00
44255;BME280;29933;47.226;15.734;2022-11-24T01:33:38;95368.63;;;1.09;100.00
44255;BME280;29933;47.226;15.734;2022-11-24T01:36:05;95372.41;;;1.08;100.00
44255;BME280;29933;47.226;15.734;2022-11-24T01:38:31;95382.41;;;1.11;100.00
44255;BME280;29933;47.226;15.734;2022-11-24T01:41:13;95387.75;;;1.11;100.00
44255;BME280;29933;47.226;15.734;2022-11-24T01:43:41;95388.22;;;0.97;100.00
44255;BME280;29933;47.226;15.734;2022-11-24T01:46:45;95376.50;;;0.86;100.00
44255;BME280;29933;47.226;15.734;2022-11-24T01:49:17;95373.75;;;0.82;100.00
44255;BME280;29933;47.226;15.734;2022-11-24T01:52:07;95381.34;;;0.80;100.00
44255;BME280;29933;47.226;15.734;2022-11-24T01:54:42;95385.47;;;0.77;100.00
44255;BME280;29933;47.226;15.734;2022-11-24T01:57:27;95381.47;;;0.68;100.00
44255;BME280;29933;47.226;15.734;2022-11-24T02:00:10;95383.16;;;0.60;100.00
44255;BME280;29933;47.226;15.734;2022-11-24T02:02:37;95389.56;;;0.55;100.00
44255;BME280;29933;47.226;15.734;2022-11-24T02:05:09;95379.47;;;0.48;100.00
44255;BME280;29933;47.226;15.734;2022-11-24T02:07:38;95388.94;;;0.46;100.00
44255;BME280;29933;47.226;15.734;2022-11-24T02:10:11;95385.59;;;0.49;100.00
44255;BME280;29933;47.226;15.734;2022-11-24T02:12:41;95373.34;;;0.32;100.00
44255;BME280;29933;47.226;15.734;2022-11-24T02:15:08;95368.00;;;0.32;100.00
44255;BME280;29933;47.226;15.734;2022-11-24T02:17:36;95380.25;;;0.33;100.00
44255;BME280;29933;47.226;15.734;2022-11-24T02:20:06;95379.47;;;0.32;100.00
44255;BME280;29933;47.226;15.734;2022-11-24T02:27:55;95403.81;;;0.15;100.00
44255;BME280;29933;47.226;15.734;2022-11-24T02:30:24;95395.19;;;0.06;100.00
44255;BME280;29933;47.226;15.734;2022-11-24T02:32:50;95402.19;;;0.10;100.00
44255;BME280;29933;47.226;15.734;2022-11-24T02:35:17;95401.59;;;0.17;100.00
44255;BME280;29933;47.226;15.734;2022-11-24T02:37:43;95405.38;;;0.16;100.00
44255;BME280;29933;47.226;15.734;2022-11-24T02:40:09;95401.50;;;0.13;100.00
44255;BME280;29933;47.226;15.734;2022-11-24T02:42:40;95405.44;;;0.04;100.00
44255;BME280;29933;47.226;15.734;2022-11-24T02:45:08;95402.69;;;0.00;100.00
44255;BME280;29933;47.226;15.734;2022-11-24T02:47:35;95403.38;;;-0.03;100.00
44255;BME280;29933;47.226;15.734;2022-11-24T02:50:01;95410.00;;;0.03;100.00
44255;BME280;29933;47.226;15.734;2022-11-24T02:52:28;95400.34;;;-0.02;100.00
44255;BME280;29933;47.226;15.734;2022-11-24T02:54:54;95403.81;;;-0.01;100.00
44255;BME280;29933;47.226;15.734;2022-11-24T02:57:21;95400.78;;;0.01;100.00
44255;BME280;29933;47.226;15.734;2022-11-24T02:59:47;95407.69;;;0.02;100.00
44255;BME280;29933;47.226;15.734;2022-11-24T03:02:13;95412.25;;;0.01;100.00
44255;BME280;29933;47.226;15.734;2022-11-24T03:04:39;95413.69;;;-0.02;100.00
44255;BME280;29933;47.226;15.734;2022-11-24T03:07:05;95406.81;;;-0.03;100.00
44255;BME280;29933;47.226;15.734;2022-11-24T03:09:31;95412.94;;;-0.02;100.00
44255;BME280;29933;47.226;15.734;2022-11-24T03:11:57;95411.81;;;-0.01;100.00
44255;BME280;29933;47.226;15.734;2022-11-24T03:14:23;95417.47;;;-0.03;100.00
44255;BME280;29933;47.226;15.734;2022-11-24T03:16:49;95422.81;;;-0.03;100.00
44255;BME280;29933;47.226;15.734;2022-11-24T03:19:14;95419.47;;;0.01;100.00
44255;BME280;29933;47.226;15.734;2022-11-24T03:21:40;95420.94;;;-0.02;100.00
44255;BME280;29933;47.226;15.734;2022-11-24T03:24:06;95426.28;;;-0.02;100.00
44255;BME280;29933;47.226;15.734;2022-11-24T03:26:34;95427.16;;;0.02;100.00
44255;BME280;29933;47.226;15.734;2022-11-24T03:29:00;95434.38;;;0.02;100.00
44255;BME280;29933;47.226;15.734;2022-11-24T03:31:26;95437.81;;;0.02;100.00
44255;BME280;29933;47.226;15.734;2022-11-24T03:33:52;95443.59;;;0.04;100.00
44255;BME280;29933;47.226;15.734;2022-11-24T03:36:18;95455.50;;;0.07;100.00
44255;BME280;29933;47.226;15.734;2022-11-24T03:38:44;95453.69;;;0.11;100.00
44255;BME280;29933;47.226;15.734;2022-11-24T03:41:10;95458.38;;;0.14;100.00
44255;BME280;29933;47.226;15.734;2022-11-24T03:43:36;95463.81;;;0.18;100.00
44255;BME280;29933;47.226;15.734;2022-11-24T03:46:01;95465.69;;;0.17;100.00
44255;BME280;29933;47.226;15.734;2022-11-24T03:48:27;95453.44;;;0.16;100.00
44255;BME280;29933;47.226;15.734;2022-11-24T03:50:56;95464.13;;;0.16;100.00
44255;BME280;29933;47.226;15.734;2022-11-24T03:53:24;95469.56;;;0.20;100.00
44255;BME280;29933;47.226;15.734;2022-11-24T03:55:50;95471.56;;;0.23;100.00
44255;BME280;29933;47.226;15.734;2022-11-24T03:58:16;95462.09;;;0.25;100.00
44255;BME280;29933;47.226;15.734;2022-11-24T04:00:42;95462.50;;;0.27;100.00
44255;BME280;29933;47.226;15.734;2022-11-24T04:03:08;95485.44;;;0.28;100.00
44255;BME280;29933;47.226;15.734;2022-11-24T04:05:34;95470.88;;;0.26;100.00
44255;BME280;29933;47.226;15.734;2022-11-24T04:08:02;95469.66;;;0.23;100.00
44255;BME280;29933;47.226;15.734;2022-11-24T04:10:30;95463.66;;;0.26;100.00
44255;BME280;29933;47.226;15.734;2022-11-24T04:12:56;95477.88;;;0.30;100.00
44255;BME280;29933;47.226;15.734;2022-11-24T04:15:22;95481.31;;;0.31;100.00
44255;BME280;29933;47.226;15.734;2022-11-24T04:17:49;95478.53;;;0.27;100.00
44255;BME280;29933;47.226;15.734;2022-11-24T04:20:16;95470.69;;;0.19;100.00
44255;BME280;29933;47.226;15.734;2022-11-24T04:22:42;95469.03;;;0.14;100.00
44255;BME280;29933;47.226;15.734;2022-11-24T04:25:09;95488.59;;;0.18;100.00
44255;BME280;29933;47.226;15.734;2022-11-24T04:27:36;95497.91;;;0.24;100.00
44255;BME280;29933;47.226;15.734;2022-11-24T04:30:04;95503.94;;;0.21;100.00
44255;BME280;29933;47.226;15.734;2022-11-24T04:32:31;95500.94;;;0.23;100.00
44255;BME280;29933;47.226;15.734;2022-11-24T04:34:57;95496.38;;;0.23;100.00
44255;BME280;29933;47.226;15.734;2022-11-24T04:37:23;95511.53;;;0.19;100.00
44255;BME280;29933;47.226;15.734;2022-11-24T04:39:49;95512.44;;;0.11;100.00
44255;BME280;29933;47.226;15.734;2022-11-24T04:42:15;95506.47;;;0.02;100.00
44255;BME280;29933;47.226;15.734;2022-11-24T04:44:41;95518.00;;;0.06;100.00
44255;BME280;29933;47.226;15.734;2022-11-24T04:47:17;95518.13;;;0.09;100.00
44255;BME280;29933;47.226;15.734;2022-11-24T04:49:46;95528.03;;;0.09;100.00
44255;BME280;29933;47.226;15.734;2022-11-24T04:52:20;95525.16;;;0.02;100.00
44255;BME280;29933;47.226;15.734;2022-11-24T04:54:47;95522.59;;;0.05;100.00
44255;BME280;29933;47.226;15.734;2022-11-24T04:57:17;95543.38;;;0.12;100.00
44255;BME280;29933;47.226;15.734;2022-11-24T04:59:43;95546.47;;;0.14;100.00
44255;BME280;29933;47.226;15.734;2022-11-24T05:02:09;95538.88;;;0.16;100.00
44255;BME280;29933;47.226;15.734;2022-11-24T05:04:35;95547.59;;;0.13;100.00
44255;BME280;29933;47.226;15.734;2022-11-24T05:07:01;95543.00;;;0.13;100.00
44255;BME280;29933;47.226;15.734;2022-11-24T05:09:27;95537.25;;;0.11;100.00
44255;BME280;29933;47.226;15.734;2022-11-24T05:11:53;95544.06;;;0.09;100.00
44255;BME280;29933;47.226;15.734;2022-11-24T05:14:18;95550.16;;;0.09;100.00
44255;BME280;29933;47.226;15.734;2022-11-24T05:16:44;95543.00;;;0.13;100.00
44255;BME280;29933;47.226;15.734;2022-11-24T05:19:10;95539.69;;;0.17;100.00
44255;BME280;29933;47.226;15.734;2022-11-24T05:21:36;95554.59;;;0.18;100.00
44255;BME280;29933;47.226;15.734;2022-11-24T05:24:02;95550.03;;;0.18;100.00
44255;BME280;29933;47.226;15.734;2022-11-24T05:26:28;95549.56;;;0.16;100.00
44255;BME280;29933;47.226;15.734;2022-11-24T05:28:54;95557.25;;;0.18;100.00
44255;BME280;29933;47.226;15.734;2022-11-24T05:31:20;95563.81;;;0.20;100.00
44255;BME280;29933;47.226;15.734;2022-11-24T05:33:45;95564.13;;;0.19;100.00
44255;BME280;29933;47.226;15.734;2022-11-24T05:36:12;95564.13;;;0.19;100.00
44255;BME280;29933;47.226;15.734;2022-11-24T05:38:57;95555.81;;;0.20;100.00
44255;BME280;29933;47.226;15.734;2022-11-24T05:41:23;95556.91;;;0.19;100.00
44255;BME280;29933;47.226;15.734;2022-11-24T05:43:49;95562.69;;;0.21;100.00
44255;BME280;29933;47.226;15.734;2022-11-24T05:46:15;95568.91;;;0.25;100.00
44255;BME280;29933;47.226;15.734;2022-11-24T05:48:41;95569.78;;;0.29;100.00
44255;BME280;29933;47.226;15.734;2022-11-24T05:51:07;95593.16;;;0.32;100.00
44255;BME280;29933;47.226;15.734;2022-11-24T05:53:33;95603.50;;;0.34;100.00
44255;BME280;29933;47.226;15.734;2022-11-24T05:56:03;95602.28;;;0.31;100.00
44255;BME280;29933;47.226;15.734;2022-11-24T05:58:29;95597.25;;;0.30;100.00
44255;BME280;29933;47.226;15.734;2022-11-24T06:00:54;95599.41;;;0.24;100.00
44255;BME280;29933;47.226;15.734;2022-11-24T06:03:20;95602.31;;;0.19;100.00
44255;BME280;29933;47.226;15.734;2022-11-24T06:05:46;95601.22;;;0.20;100.00
44255;BME280;29933;47.226;15.734;2022-11-24T06:08:13;95591.03;;;0.26;100.00
44255;BME280;29933;47.226;15.734;2022-11-24T06:10:39;95589.38;;;0.21;100.00
44255;BME280;29933;47.226;15.734;2022-11-24T06:13:06;95601.63;;;0.22;100.00
44255;BME280;29933;47.226;15.734;2022-11-24T06:15:34;95603.63;;;0.25;100.00
44255;BME280;29933;47.226;15.734;2022-11-24T06:18:02;95604.06;;;0.27;100.00
44255;BME280;29933;47.226;15.734;2022-11-24T06:20:28;95610.72;;;0.34;100.00
44255;BME280;29933;47.226;15.734;2022-11-24T06:22:56;95616.16;;;0.37;100.00
44255;BME280;29933;47.226;15.734;2022-11-24T06:25:23;95615.81;;;0.39;100.00
44255;BME280;29933;47.226;15.734;2022-11-24T06:27:49;95621.63;;;0.41;100.00
44255;BME280;29933;47.226;15.734;2022-11-24T06:30:15;95630.50;;;0.45;100.00
44255;BME280;29933;47.226;15.734;2022-11-24T06:32:41;95629.38;;;0.46;100.00
44255;BME280;29933;47.226;15.734;2022-11-24T06:35:13;95631.41;;;0.49;100.00
44255;BME280;29933;47.226;15.734;2022-11-24T06:37:39;95624.50;;;0.48;100.00
44255;BME280;29933;47.226;15.734;2022-11-24T06:40:06;95627.63;;;0.50;100.00
44255;BME280;29933;47.226;15.734;2022-11-24T06:42:35;95641.19;;;0.45;100.00
44255;BME280;29933;47.226;15.734;2022-11-24T06:45:01;95637.28;;;0.42;100.00
44255;BME280;29933;47.226;15.734;2022-11-24T06:47:26;95648.78;;;0.43;100.00
44255;BME280;29933;47.226;15.734;2022-11-24T06:49:52;95651.88;;;0.45;100.00
44255;BME280;29933;47.226;15.734;2022-11-24T06:52:18;95654.31;;;0.50;100.00
44255;BME280;29933;47.226;15.734;2022-11-24T06:54:44;95655.66;;;0.56;100.00
44255;BME280;29933;47.226;15.734;2022-11-24T06:57:10;95659.19;;;0.60;100.00
44255;BME280;29933;47.226;15.734;2022-11-24T06:59:35;95651.59;;;0.62;100.00
44255;BME280;29933;47.226;15.734;2022-11-24T07:02:01;95659.19;;;0.60;100.00
44255;BME280;29933;47.226;15.734;2022-11-24T07:04:27;95651.28;;;0.64;100.00
44255;BME280;29933;47.226;15.734;2022-11-24T07:06:53;95659.81;;;0.70;100.00
44255;BME280;29933;47.226;15.734;2022-11-24T07:09:19;95657.34;;;0.77;100.00
44255;BME280;29933;47.226;15.734;2022-11-24T07:11:45;95663.25;;;0.83;100.00
44255;BME280;29933;47.226;15.734;2022-11-24T07:14:11;95669.09;;;0.88;100.00
44255;BME280;29933;47.226;15.734;2022-11-24T07:16:38;95679.13;;;0.91;100.00
44255;BME280;29933;47.226;15.734;2022-11-24T07:19:04;95676.88;;;0.93;100.00
44255;BME280;29933;47.226;15.734;2022-11-24T07:21:29;95682.31;;;0.97;100.00
44255;BME280;29933;47.226;15.734;2022-11-24T07:23:56;95688.53;;;1.01;100.00
44255;BME280;29933;47.226;15.734;2022-11-24T07:26:23;95683.28;;;1.05;100.00
44255;BME280;29933;47.226;15.734;2022-11-24T07:28:49;95687.63;;;1.09;100.00
44255;BME280;29933;47.226;15.734;2022-11-24T07:31:19;95699.97;;;1.14;100.00
44255;BME280;29933;47.226;15.734;2022-11-24T07:33:53;95704.63;;;1.17;100.00
44255;BME280;29933;47.226;15.734;2022-11-24T07:36:20;95696.34;;;1.22;100.00
44255;BME280;29933;47.226;15.734;2022-11-24T07:38:47;95702.25;;;1.28;100.00
44255;BME280;29933;47.226;15.734;2022-11-24T07:41:15;95709.66;;;1.35;100.00
44255;BME280;29933;47.226;15.734;2022-11-24T07:43:42;95705.97;;;1.39;100.00
44255;BME280;29933;47.226;15.734;2022-11-24T07:46:15;95708.50;;;1.48;100.00
44255;BME280;29933;47.226;15.734;2022-11-24T07:48:41;95708.34;;;1.57;100.00
44255;BME280;29933;47.226;15.734;2022-11-24T07:51:07;95720.69;;;1.61;100.00
44255;BME280;29933;47.226;15.734;2022-11-24T07:53:35;95717.75;;;1.67;100.00
44255;BME280;29933;47.226;15.734;2022-11-24T07:56:03;95725.97;;;1.74;100.00
44255;BME280;29933;47.226;15.734;2022-11-24T07:58:33;95732.63;;;1.80;100.00
44255;BME280;29933;47.226;15.734;2022-11-24T08:01:16;95739.69;;;1.88;100.00
44255;BME280;29933;47.226;15.734;2022-11-24T08:03:44;95732.28;;;1.98;100.00
44255;BME280;29933;47.226;15.734;2022-11-24T08:06:11;95733.13;;;2.02;100.00
44255;BME280;29933;47.226;15.734;2022-11-24T08:08:37;95735.91;;;2.05;100.00
44255;BME280;29933;47.226;15.734;2022-11-24T08:11:09;95737.88;;;2.08;100.00
44255;BME280;29933;47.226;15.734;2022-11-24T08:13:36;95741.94;;;2.18;100.00
44255;BME280;29933;47.226;15.734;2022-11-24T08:16:09;95737.88;;;2.24;100.00
44255;BME280;29933;47.226;15.734;2022-11-24T08:18:36;95746.06;;;2.32;100.00
44255;BME280;29933;47.226;15.734;2022-11-24T08:21:03;95739.75;;;2.40;100.00
44255;BME280;29933;47.226;15.734;2022-11-24T08:23:30;95742.66;;;2.51;100.00
44255;BME280;29933;47.226;15.734;2022-11-24T08:25:56;95746.06;;;2.67;100.00
44255;BME280;29933;47.226;15.734;2022-11-24T08:28:27;95738.63;;;2.77;100.00
44255;BME280;29933;47.226;15.734;2022-11-24T08:31:04;95740.81;;;2.90;100.00
44255;BME280;29933;47.226;15.734;2022-11-24T08:33:31;95739.13;;;3.02;100.00
44255;BME280;29933;47.226;15.734;2022-11-24T08:36:05;95744.38;;;3.14;100.00
44255;BME280;29933;47.226;15.734;2022-11-24T08:38:32;95748.47;;;3.28;100.00
44255;BME280;29933;47.226;15.734;2022-11-24T08:41:16;95740.59;;;3.38;100.00
44255;BME280;29933;47.226;15.734;2022-11-24T08:43:42;95744.63;;;3.48;100.00
44255;BME280;29933;47.226;15.734;2022-11-24T08:46:12;95752.50;;;3.61;100.00
44255;BME280;29933;47.226;15.734;2022-11-24T08:48:39;95749.19;;;3.67;100.00
44255;BME280;29933;47.226;15.734;2022-11-24T08:51:12;95758.03;;;3.68;100.00
44255;BME280;29933;47.226;15.734;2022-11-24T08:53:39;95759.34;;;3.78;100.00
44255;BME280;29933;47.226;15.734;2022-11-24T08:56:07;95754.22;;;3.92;100.00
44255;BME280;29933;47.226;15.734;2022-11-24T08:58:34;95757.44;;;4.01;100.00
44255;BME280;29933;47.226;15.734;2022-11-24T09:01:11;95763.34;;;4.11;100.00
44255;BME280;29933;47.226;15.734;2022-11-24T09:03:38;95759.53;;;4.12;100.00
44255;BME280;29933;47.226;15.734;2022-11-24T09:06:06;95769.38;;;4.27;100.00
44255;BME280;29933;47.226;15.734;2022-11-24T09:08:33;95766.91;;;4.42;100.00
44255;BME280;29933;47.226;15.734;2022-11-24T09:11:06;95756.44;;;4.60;100.00
44255;BME280;29933;47.226;15.734;2022-11-24T09:13:33;95765.81;;;4.73;100.00
44255;BME280;29933;47.226;15.734;2022-11-24T09:16:07;95759.47;;;4.85;100.00
44255;BME280;29933;47.226;15.734;2022-11-24T09:18:33;95761.84;;;4.90;100.00
44255;BME280;29933;47.226;15.734;2022-11-24T09:21:07;95766.13;;;4.95;100.00
44255;BME280;29933;47.226;15.734;2022-11-24T09:23:34;95771.94;;;5.00;100.00
44255;BME280;29933;47.226;15.734;2022-11-24T09:26:13;95767.03;;;5.06;100.00
44255;BME280;29933;47.226;15.734;2022-11-24T09:28:40;95769.00;;;5.09;100.00
44255;BME280;29933;47.226;15.734;2022-11-24T09:31:10;95775.66;;;5.19;100.00
44255;BME280;29933;47.226;15.734;2022-11-24T09:33:37;95781.81;;;5.19;100.00
44255;BME280;29933;47.226;15.734;2022-11-24T09:36:05;95784.91;;;5.22;100.00
44255;BME280;29933;47.226;15.734;2022-11-24T09:38:31;95789.16;;;5.23;100.00
44255;BME280;29933;47.226;15.734;2022-11-24T09:50:38;95793.69;;;5.15;100.00
44255;BME280;29933;47.226;15.734;2022-11-24T09:55:54;95797.56;;;5.17;100.00
44255;BME280;29933;47.226;15.734;2022-11-24T09:58:43;95802.53;;;5.15;100.00
44255;BME280;29933;47.226;15.734;2022-11-24T10:01:28;95799.47;;;5.17;100.00
44255;BME280;29933;47.226;15.734;2022-11-24T10:03:55;95805.72;;;5.25;100.00
44255;BME280;29933;47.226;15.734;2022-11-24T10:06:39;95802.44;;;5.39;100.00
44255;BME280;29933;47.226;15.734;2022-11-24T10:09:52;95804.84;;;5.47;100.00
44255;BME280;29933;47.226;15.734;2022-11-24T10:18:27;95805.66;;;6.27;100.00
44255;BME280;29933;47.226;15.734;2022-11-24T10:27:17;95810.50;;;6.07;100.00
44255;BME280;29933;47.226;15.734;2022-11-24T10:29:49;95817.41;;;6.04;100.00
44255;BME280;29933;47.226;15.734;2022-11-24T10:32:34;95818.09;;;5.97;100.00
44255;BME280;29933;47.226;15.734;2022-11-24T10:35:35;95815.31;;;5.90;100.00
44255;BME280;29933;47.226;15.734;2022-11-24T10:41:11;95814.13;;;5.88;100.00
44255;BME280;29933;47.226;15.734;2022-11-24T10:43:40;95819.13;;;5.86;100.00
44255;BME280;29933;47.226;15.734;2022-11-24T10:46:15;95807.97;;;5.87;100.00
44255;BME280;29933;47.226;15.734;2022-11-24T10:49:06;95805.06;;;6.03;100.00
44255;BME280;29933;47.226;15.734;2022-11-24T10:51:45;95810.69;;;6.25;100.00
44255;BME280;29933;47.226;15.734;2022-11-24T10:54:19;95811.66;;;6.47;100.00
44255;BME280;29933;47.226;15.734;2022-11-24T10:56:49;95807.91;;;6.62;100.00
44255;BME280;29933;47.226;15.734;2022-11-24T10:59:35;95809.88;;;6.73;100.00
44255;BME280;29933;47.226;15.734;2022-11-24T11:02:32;95805.06;;;7.04;100.00
44255;BME280;29933;47.226;15.734;2022-11-24T11:08:30;95812.84;;;7.12;100.00
44255;BME280;29933;47.226;15.734;2022-11-24T11:11:19;95812.09;;;7.12;100.00
44255;BME280;29933;47.226;15.734;2022-11-24T11:14:04;95813.63;;;7.17;100.00
44255;BME280;29933;47.226;15.734;2022-11-24T11:16:54;95813.25;;;7.15;100.00
44255;BME280;29933;47.226;15.734;2022-11-24T11:19:37;95817.47;;;7.08;100.00
44255;BME280;29933;47.226;15.734;2022-11-24T11:24:39;95815.19;;;7.18;100.00
44255;BME280;29933;47.226;15.734;2022-11-24T11:27:20;95813.63;;;7.17;100.00
44255;BME280;29933;47.226;15.734;2022-11-24T11:29:47;95819.84;;;7.21;100.00
44255;BME280;29933;47.226;15.734;2022-11-24T11:32:22;95822.19;;;7.26;100.00
44255;BME280;29933;47.226;15.734;2022-11-24T11:34:51;95825.28;;;7.32;100.00
44255;BME280;29933;47.226;15.734;2022-11-24T11:37:21;95819.50;;;7.37;100.00
44255;BME280;29933;47.226;15.734;2022-11-24T11:39:51;95811.06;;;7.45;100.00
44255;BME280;29933;47.226;15.734;2022-11-24T11:47:57;95816.94;;;7.62;100.00
44255;BME280;29933;47.226;15.734;2022-11-24T11:51:13;95817.41;;;7.86;100.00
44255;BME280;29933;47.226;15.734;2022-11-24T11:54:26;95805.47;;;8.05;100.00
44255;BME280;29933;47.226;15.734;2022-11-24T11:58:11;95818.28;;;8.37;100.00
44255;BME280;29933;47.226;15.734;2022-11-24T12:00:19;95816.34;;;8.41;100.00
44255;BME280;29933;47.226;15.734;2022-11-24T12:13:57;95820.22;;;8.87;100.00
44255;BME280;29933;47.226;15.734;2022-11-24T12:19:27;95834.13;;;8.82;100.00
44255;BME280;29933;47.226;15.734;2022-11-24T12:22:23;95829.13;;;8.69;100.00
44255;BME280;29933;47.226;15.734;2022-11-24T12:25:29;95822.53;;;8.70;100.00
44255;BME280;29933;47.226;15.734;2022-11-24T12:31:06;95821.78;;;8.73;100.00
44255;BME280;29933;47.226;15.734;2022-11-24T12:37:11;95824.44;;;8.88;100.00
44255;BME280;29933;47.226;15.734;2022-11-24T12:39:59;95820.94;;;9.16;100.00
44255;BME280;29933;47.226;15.734;2022-11-24T12:45:50;95829.44;;;9.22;100.00
44255;BME280;29933;47.226;15.734;2022-11-24T12:48:41;95829.81;;;9.31;100.00
44255;BME280;29933;47.226;15.734;2022-11-24T12:51:24;95831.00;;;9.23;100.00
44255;BME280;29933;47.226;15.734;2022-11-24T12:53:52;95827.88;;;9.28;100.00
44255;BME280;29933;47.226;15.734;2022-11-24T12:56:35;95829.41;;;9.33;100.00
44255;BME280;29933;47.226;15.734;2022-11-24T12:59:36;95823.22;;;9.36;100.00
44255;BME280;29933;47.226;15.734;2022-11-24T13:05:31;95818.53;;;9.51;100.00
44255;BME280;29933;47.226;15.734;2022-11-24T13:08:02;95828.22;;;9.41;100.00
44255;BME280;29933;47.226;15.734;2022-11-24T13:10:35;95831.75;;;9.34;100.00
44255;BME280;29933;47.226;15.734;2022-11-24T13:13:10;95831.69;;;9.49;100.00
44255;BME280;29933;47.226;15.734;2022-11-24T13:21:46;95833.97;;;9.57;100.00
44255;BME280;29933;47.226;15.734;2022-11-24T13:31:54;95829.78;;;9.38;100.00
44255;BME280;29933;47.226;15.734;2022-11-24T13:39:58;95820.53;;;9.18;100.00
44255;BME280;29933;47.226;15.734;2022-11-24T13:42:29;95815.91;;;9.18;100.00
44255;BME280;29933;47.226;15.734;2022-11-24T13:44:58;95815.91;;;9.22;100.00
44255;BME280;29933;47.226;15.734;2022-11-24T13:47:35;95825.94;;;9.18;100.00
44255;BME280;29933;47.226;15.734;2022-11-24T13:53:08;95826.00;;;9.03;100.00
44255;BME280;29933;47.226;15.734;2022-11-24T13:55:41;95834.53;;;9.02;100.00
44255;BME280;29933;47.226;15.734;2022-11-24T13:58:37;95832.97;;;9.08;100.00
44255;BME280;29933;47.226;15.734;2022-11-24T14:01:11;95838.75;;;9.06;100.00
44255;BME280;29933;47.226;15.734;2022-11-24T14:04:23;95848.81;;;8.99;100.00
44255;BME280;29933;47.226;15.734;2022-11-24T14:06:59;95850.38;;;8.82;100.00
44255;BME280;29933;47.226;15.734;2022-11-24T14:09:44;95850.00;;;8.62;100.00
44255;BME280;29933;47.226;15.734;2022-11-24T14:14:52;95849.16;;;8.29;100.00
44255;BME280;29933;47.226;15.734;2022-11-24T14:17:21;95844.09;;;8.13;100.00
44255;BME280;29933;47.226;15.734;2022-11-24T14:19:56;95842.56;;;8.04;100.00
44255;BME280;29933;47.226;15.734;2022-11-24T14:22:36;95848.69;;;7.90;100.00
44255;BME280;29933;47.226;15.734;2022-11-24T14:25:04;95855.16;;;7.64;100.00
44255;BME280;29933;47.226;15.734;2022-11-24T14:27:36;95860.88;;;7.44;100.00
44255;BME280;29933;47.226;15.734;2022-11-24T14:32:39;95864.88;;;7.06;100.00
44255;BME280;29933;47.226;15.734;2022-11-24T14:35:24;95872.84;;;6.88;100.00
44255;BME280;29933;47.226;15.734;2022-11-24T14:37:50;95867.34;;;6.73;100.00
44255;BME280;29933;47.226;15.734;2022-11-24T14:40:39;95864.78;;;6.43;100.00
44255;BME280;29933;47.226;15.734;2022-11-24T14:43:30;95872.75;;;6.28;100.00
44255;BME280;29933;47.226;15.734;2022-11-24T14:46:06;95876.13;;;6.22;100.00
44255;BME280;29933;47.226;15.734;2022-11-24T14:48:38;95888.00;;;6.13;100.00
44255;BME280;29933;47.226;15.734;2022-11-24T14:51:20;95884.69;;;5.97;100.00